Time;durP1;ratioP1;P1;durP2;ratioP2;P2;SDS_P1;SDS_P2;PMS_P1;PMS_P2;Temp;Humidity;BMP_temperature;BMP_pressure;BME280_temperature;BME280_humidity;BME280_pressure;Samples;Min_cycle;Max_cycle;Signal;HPM_P1;HPM_P2
2022/03/13 00:00:36;;;;;;;5.47;2.88;;;;;;;-6.60;81.35;61332.94;5026547;28;20207;-77
2022/03/13 00:03:03;;;;;;;3.70;2.70;;;;;;;-6.68;80.89;61321.81;5029839;28;20552;-78
2022/03/13 00:05:30;;;;;;;5.10;2.92;;;;;;;-6.67;81.33;61327.78;5025788;28;20207;-78
2022/03/13 00:07:57;;;;;;;3.75;2.95;;;;;;;-6.66;81.08;61331.78;5024002;28;20234;-78
2022/03/13 00:10:27;;;;;;;4.00;2.78;;;;;;;-6.64;81.09;61333.31;5036858;28;20252;-78
2022/03/13 00:12:55;;;;;;;4.82;3.08;;;;;;;-6.59;80.85;61331.47;5034789;28;20225;-78
2022/03/13 00:15:34;;;;;;;4.35;2.85;;;;;;;-6.60;81.31;61335.41;5031780;28;20195;-78
2022/03/13 00:18:01;;;;;;;5.72;3.22;;;;;;;-6.70;81.27;61317.31;5030970;28;20230;-78
2022/03/13 00:20:28;;;;;;;4.15;2.63;;;;;;;-6.70;80.12;61322.25;5034782;28;20221;-79
2022/03/13 00:22:55;;;;;;;5.95;4.00;;;;;;;-6.66;79.59;61329.28;5031625;28;20477;-79
2022/03/13 00:25:23;;;;;;;5.25;2.72;;;;;;;-6.49;79.33;61346.59;5039703;28;20198;-79
2022/03/13 00:27:49;;;;;;;4.25;2.30;;;;;;;-6.48;78.62;61337.72;5025887;28;20226;-79
2022/03/13 00:30:17;;;;;;;2.53;2.33;;;;;;;-6.46;79.12;61347.19;5025479;28;20269;-78
2022/03/13 00:32:45;;;;;;;2.85;2.28;;;;;;;-6.40;77.94;61355.28;5024079;28;20222;-79
2022/03/13 00:35:13;;;;;;;2.83;2.53;;;;;;;-6.49;77.67;61346.09;5030191;28;20242;-78
2022/03/13 00:37:40;;;;;;;3.75;2.80;;;;;;;-6.42;78.21;61348.28;5024612;28;20606;-77
2022/03/13 00:40:08;;;;;;;4.10;3.63;;;;;;;-6.47;78.80;61348.63;5024121;28;20219;-77
2022/03/13 00:42:35;;;;;;;2.83;2.63;;;;;;;-6.47;79.42;61343.19;5025859;28;20230;-78
2022/03/13 00:45:02;;;;;;;3.72;2.88;;;;;;;-6.48;79.68;61347.63;5029808;28;20206;-79
2022/03/13 00:47:29;;;;;;;5.10;3.40;;;;;;;-6.53;79.19;61337.59;5045938;28;20260;-78
2022/03/13 00:49:57;;;;;;;3.95;2.85;;;;;;;-6.52;79.62;61338.09;5030739;28;20234;-78
2022/03/13 00:52:24;;;;;;;5.43;3.30;;;;;;;-6.51;79.23;61342.09;5025081;28;20223;-79
2022/03/13 00:54:51;;;;;;;4.05;2.70;;;;;;;-6.46;79.61;61351.63;5024377;28;20203;-78
2022/03/13 00:57:18;;;;;;;2.85;1.92;;;;;;;-6.49;78.38;61341.16;5045072;28;20278;-79
2022/03/13 00:59:46;;;;;;;4.10;2.47;;;;;;;-6.55;77.11;61338.03;5025406;28;20203;-79
2022/03/13 01:02:14;;;;;;;3.88;2.80;;;;;;;-6.55;78.01;61332.56;5026524;28;20218;-79
2022/03/13 01:04:41;;;;;;;2.30;2.08;;;;;;;-6.48;77.54;61347.63;5031849;28;20209;-78
2022/03/13 01:07:10;;;;;;;4.97;3.30;;;;;;;-6.52;78.24;61341.06;5040395;28;20428;-80
2022/03/13 01:09:37;;;;;;;3.72;2.35;;;;;;;-6.56;78.76;61337.03;5025649;28;20199;-78
2022/03/13 01:12:05;;;;;;;3.70;2.35;;;;;;;-6.65;79.23;61322.91;5026685;28;20234;-78
2022/03/13 01:14:32;;;;;;;4.57;2.63;;;;;;;-6.66;79.07;61329.28;5039331;28;20462;-78
2022/03/13 01:17:02;;;;;;;3.20;1.70;;;;;;;-6.72;78.93;61313.31;5036524;28;20305;-78
2022/03/13 01:19:29;;;;;;;2.65;2.45;;;;;;;-6.69;79.38;61326.25;5042388;28;20194;-78
2022/03/13 01:21:56;;;;;;;2.45;2.25;;;;;;;-6.66;79.39;61324.34;5024619;28;20285;-78
2022/03/13 01:24:31;;;;;;;2.10;1.90;;;;;;;-6.62;80.14;61333.38;5025812;28;20198;-78
2022/03/13 01:27:01;;;;;;;3.03;2.72;;;;;;;-6.66;80.80;61326.81;5022751;28;20256;-78
2022/03/13 01:29:29;;;;;;;3.22;2.35;;;;;;;-6.75;81.04;61319.63;5038264;28;20237;-78
2022/03/13 01:31:56;;;;;;;4.47;3.17;;;;;;;-6.74;81.22;61316.22;5025612;28;20241;-77
2022/03/13 01:34:42;;;;;;;2.40;2.20;;;;;;;-6.73;80.61;61319.69;5023940;28;20217;-78
2022/03/13 01:37:15;;;;;;;2.80;2.58;;;;;;;-6.86;80.26;61306.47;5029847;28;20384;-80
2022/03/13 01:39:43;;;;;;;4.28;2.58;;;;;;;-6.87;81.00;61300.00;5023061;28;20217;-78
2022/03/13 01:42:11;;;;;;;3.65;2.95;;;;;;;-6.89;81.57;61302.91;5024956;28;20238;-78
2022/03/13 01:44:38;;;;;;;5.20;3.15;;;;;;;-6.88;80.86;61306.91;5025995;28;20237;-77
2022/03/13 01:47:07;;;;;;;6.72;2.97;;;;;;;-6.99;81.05;61293.25;5036605;28;20248;-78
2022/03/13 01:49:34;;;;;;;5.38;3.40;;;;;;;-6.97;83.16;61295.28;5036892;28;20208;-78
2022/03/13 01:52:02;;;;;;;6.57;3.53;;;;;;;-6.99;82.80;61293.25;5047234;28;20234;-78
2022/03/13 01:54:30;;;;;;;3.13;2.50;;;;;;;-7.04;82.82;61285.69;5025053;28;20277;-78
2022/03/13 01:57:01;;;;;;;5.93;3.72;;;;;;;-7.04;82.99;61287.66;5035315;28;20861;-78
2022/03/13 01:59:29;;;;;;;3.28;2.70;;;;;;;-7.10;83.29;61274.63;5043071;28;20248;-78
2022/03/13 02:01:57;;;;;;;5.72;3.80;;;;;;;-7.03;83.86;61288.66;5040692;28;20233;-78
2022/03/13 02:04:27;;;;;;;4.60;3.50;;;;;;;-7.02;83.89;61289.69;5031176;28;20245;-78
2022/03/13 02:06:58;;;;;;;8.48;3.92;;;;;;;-6.98;83.40;61296.22;5029578;28;20222;-79
2022/03/13 02:09:26;;;;;;;11.13;5.22;;;;;;;-7.01;83.00;61293.69;5039887;28;20232;-78
2022/03/13 02:11:53;;;;;;;4.90;3.53;;;;;;;-7.04;81.74;61285.69;5030989;28;20237;-80
2022/03/13 02:14:24;;;;;;;6.00;3.35;;;;;;;-6.96;80.83;61293.31;5049534;28;20212;-78
2022/03/13 02:16:52;;;;;;;3.28;2.97;;;;;;;-6.97;81.14;61294.78;5028621;28;20230;-78
2022/03/13 02:19:19;;;;;;;3.97;3.20;;;;;;;-6.98;81.13;61298.69;5027707;28;20245;-77
2022/03/13 02:21:50;;;;;;;4.10;2.47;;;;;;;-7.02;81.77;61284.75;5026734;28;20245;-77
2022/03/13 02:24:24;;;;;;;5.15;2.55;;;;;;;-7.09;81.99;61283.06;5038034;28;20202;-77
2022/03/13 02:27:00;;;;;;;3.05;2.20;;;;;;;-7.13;82.51;61274.06;5028457;28;20425;-77
2022/03/13 02:29:27;;;;;;;3.75;2.55;;;;;;;-7.09;83.08;61285.03;5028312;28;20206;-78
2022/03/13 02:31:55;;;;;;;4.57;2.97;;;;;;;-7.09;83.82;61282.56;5031365;28;20289;-79
2022/03/13 02:34:22;;;;;;;3.40;2.92;;;;;;;-7.09;84.53;61280.09;5034964;28;20235;-79
2022/03/13 02:37:00;;;;;;;3.80;3.42;;;;;;;-7.13;85.00;61279.50;5048433;28;20210;-79
2022/03/13 02:39:29;;;;;;;8.23;4.07;;;;;;;-7.16;85.13;61275.94;5026868;28;20201;-79
2022/03/13 02:41:56;;;;;;;4.80;3.60;;;;;;;-7.14;85.45;61275.50;5038149;28;20257;-79
2022/03/13 02:44:24;;;;;;;3.13;2.80;;;;;;;-7.13;85.79;61274.06;5028023;28;20562;-78
2022/03/13 02:47:00;;;;;;;7.85;3.47;;;;;;;-7.19;85.35;61270.41;5011544;28;20223;-79
2022/03/13 02:49:29;;;;;;;11.48;3.92;;;;;;;-7.06;84.83;61283.13;5048090;28;20216;-78
2022/03/13 02:51:58;;;;;;;3.00;2.58;;;;;;;-7.22;83.90;61267.38;5027355;28;20264;-78
2022/03/13 02:54:25;;;;;;;3.72;2.63;;;;;;;-7.28;84.21;61263.72;5028606;28;20195;-77
2022/03/13 02:56:54;;;;;;;4.00;2.38;;;;;;;-7.27;84.65;61262.28;5027239;28;20229;-78
2022/03/13 02:59:21;;;;;;;3.10;2.80;;;;;;;-7.24;84.06;61272.75;5029324;28;20483;-78
2022/03/13 03:01:49;;;;;;;4.53;3.55;;;;;;;-7.29;83.61;61265.72;5028169;28;20229;-77
2022/03/13 03:04:16;;;;;;;4.38;2.78;;;;;;;-7.35;83.77;61259.59;5038258;28;20202;-78
2022/03/13 03:06:52;;;;;;;3.13;2.47;;;;;;;-7.28;84.13;61261.25;5010744;28;20223;-78
2022/03/13 03:09:20;;;;;;;2.72;2.53;;;;;;;-7.26;84.07;61266.28;5012700;28;20221;-79
2022/03/13 03:11:47;;;;;;;3.00;2.53;;;;;;;-7.27;84.42;61267.75;5031026;28;20243;-79
2022/03/13 03:14:16;;;;;;;3.17;2.88;;;;;;;-7.26;84.75;61263.28;5038888;28;20209;-79
2022/03/13 03:16:44;;;;;;;4.97;3.00;;;;;;;-7.32;84.92;61262.16;5009833;28;20227;-79
2022/03/13 03:19:11;;;;;;;4.88;4.00;;;;;;;-7.27;85.13;61262.81;5018943;28;20221;-78
2022/03/13 03:21:39;;;;;;;5.30;3.53;;;;;;;-7.20;85.92;61269.41;5034340;28;20232;-79
2022/03/13 03:24:18;;;;;;;7.95;4.25;;;;;;;-7.07;86.57;61287.06;5029407;28;20253;-77
2022/03/13 03:26:45;;;;;;;5.95;3.95;;;;;;;-7.11;86.96;61281.03;5022077;28;20211;-79
2022/03/13 03:29:12;;;;;;;7.45;4.43;;;;;;;-7.05;87.03;61284.16;5028811;28;20206;-80
2022/03/13 03:31:46;;;;;;;7.43;4.78;;;;;;;-7.11;87.23;61278.56;5027812;28;20230;-78
2022/03/13 03:34:15;;;;;;;8.02;3.47;;;;;;;-7.02;86.66;61292.16;5011953;28;20203;-79
2022/03/13 03:36:44;;;;;;;3.55;3.05;;;;;;;-7.06;86.06;61280.66;5033104;28;20222;-78
2022/03/13 03:39:12;;;;;;;6.72;3.97;;;;;;;-7.09;86.13;61283.06;5028192;28;20241;-78
2022/03/13 03:41:42;;;;;;;4.65;3.22;;;;;;;-7.08;86.61;61284.09;5026713;28;20285;-79
2022/03/13 03:44:09;;;;;;;5.78;3.00;;;;;;;-7.13;87.07;61281.97;5033916;28;20476;-79
2022/03/13 03:46:36;;;;;;;5.82;3.42;;;;;;;-7.17;87.62;61274.94;5031542;28;20419;-79
2022/03/13 03:49:05;;;;;;;5.53;3.65;;;;;;;-7.10;88.08;61284.53;5026933;28;20195;-79
2022/03/13 03:51:32;;;;;;;3.78;3.33;;;;;;;-7.10;87.65;61282.06;5026161;28;20230;-78
2022/03/13 03:53:59;;;;;;;2.67;2.55;;;;;;;-7.11;87.78;61281.03;5025979;28;20218;-78
2022/03/13 03:56:26;;;;;;;4.13;3.08;;;;;;;-7.11;88.05;61279.06;5025484;28;20217;-78
2022/03/13 03:58:53;;;;;;;3.30;3.00;;;;;;;-7.07;88.73;61287.56;5026568;28;20528;-78
2022/03/13 04:01:20;;;;;;;5.97;3.47;;;;;;;-6.95;88.76;61294.84;5026545;28;20250;-78
2022/03/13 04:03:47;;;;;;;5.10;3.35;;;;;;;-6.89;88.39;61302.91;5013962;28;20205;-78
2022/03/13 04:06:16;;;;;;;7.68;4.50;;;;;;;-6.84;88.33;61305.53;5041386;28;20248;-79
2022/03/13 04:08:43;;;;;;;6.70;3.35;;;;;;;-6.79;88.58;61315.56;5038872;28;20282;-79
2022/03/13 04:11:11;;;;;;;14.40;4.47;;;;;;;-6.77;88.03;61312.66;5026162;28;20234;-79
2022/03/13 04:13:38;;;;;;;6.75;3.60;;;;;;;-6.71;88.22;61318.75;5026723;28;20566;-77
2022/03/13 04:16:08;;;;;;;6.10;3.78;;;;;;;-6.64;87.97;61328.84;5032207;28;20341;-81
2022/03/13 04:18:35;;;;;;;6.55;5.63;;;;;;;-6.59;87.68;61329.00;5031916;28;20224;-78
2022/03/13 04:21:04;;;;;;;5.35;4.13;;;;;;;-6.53;87.69;61340.06;5025671;28;20537;-79
2022/03/13 04:23:33;;;;;;;6.00;3.88;;;;;;;-6.40;87.28;61352.81;5032175;28;20217;-78
2022/03/13 04:26:00;;;;;;;6.32;3.95;;;;;;;-6.37;87.00;61358.84;5039902;28;20523;-78
2022/03/13 04:28:27;;;;;;;17.42;6.15;;;;;;;-6.35;87.18;61355.91;5022448;28;20375;-80
2022/03/13 04:30:57;;;;;;;7.15;5.15;;;;;;;-6.35;86.96;61355.41;5026905;28;20256;-78
2022/03/13 04:33:25;;;;;;;10.02;6.28;;;;;;;-6.34;87.01;61358.91;5026223;28;20585;-79
2022/03/13 04:35:56;;;;;;;7.43;4.40;;;;;;;-6.36;87.42;61356.84;5025908;28;20211;-78
2022/03/13 04:38:24;;;;;;;6.07;4.82;;;;;;;-6.37;86.98;61358.84;5025950;28;20558;-79
2022/03/13 04:40:52;;;;;;;10.05;6.03;;;;;;;-6.28;86.95;61369.97;5025588;28;20195;-76
2022/03/13 04:43:19;;;;;;;6.72;5.20;;;;;;;-6.23;86.64;61370.09;5023194;28;20282;-76
2022/03/13 04:45:47;;;;;;;7.88;4.50;;;;;;;-6.18;87.02;61373.22;5023387;28;20292;-79
2022/03/13 04:48:14;;;;;;;5.05;4.25;;;;;;;-6.11;87.00;61375.38;5039958;28;20222;-78
2022/03/13 04:50:41;;;;;;;8.95;6.20;;;;;;;-6.04;86.95;61389.94;5037700;28;20199;-79
2022/03/13 04:53:08;;;;;;;8.43;5.75;;;;;;;-5.91;86.44;61402.69;5026825;28;20520;-79
2022/03/13 04:55:35;;;;;;;6.47;5.50;;;;;;;-5.83;86.65;61407.84;5023747;28;20503;-78
2022/03/13 04:58:03;;;;;;;11.05;6.00;;;;;;;-5.81;86.60;61412.84;5025875;28;20260;-79
2022/03/13 05:00:31;;;;;;;7.78;5.22;;;;;;;-5.89;86.37;61401.75;5019756;28;20274;-78
2022/03/13 05:02:58;;;;;;;7.97;5.30;;;;;;;-5.83;86.51;61407.84;5018645;28;21469;-79
2022/03/13 05:05:25;;;;;;;9.52;5.47;;;;;;;-5.79;86.17;61414.38;5020564;28;20437;-79
2022/03/13 05:07:52;;;;;;;14.00;6.20;;;;;;;-5.79;86.68;61411.91;5022424;28;20249;-79
2022/03/13 05:10:19;;;;;;;11.70;6.82;;;;;;;-5.70;85.93;61424.06;5019859;28;20200;-79
2022/03/13 05:12:46;;;;;;;19.33;9.13;;;;;;;-5.89;83.96;61406.69;5018543;28;20513;-79
2022/03/13 05:15:15;;;;;;;21.00;11.70;;;;;;;-5.91;85.12;61402.69;5025602;28;20518;-79
2022/03/13 05:17:42;;;;;;;25.17;10.38;;;;;;;-5.82;86.44;61414.31;5024684;28;20265;-79
2022/03/13 05:20:11;;;;;;;16.67;11.25;;;;;;;-5.74;88.05;61417.00;5015920;28;20267;-79
2022/03/13 05:22:37;;;;;;;20.92;11.05;;;;;;;-5.53;88.94;61435.91;5018505;28;20288;-78
2022/03/13 05:25:05;;;;;;;33.65;12.75;;;;;;;-5.30;88.78;61464.84;5018620;28;20218;-77
2022/03/13 05:27:32;;;;;;;23.05;10.50;;;;;;;-5.45;87.87;61447.06;5016789;28;20223;-77
2022/03/13 05:29:59;;;;;;;22.77;11.60;;;;;;;-5.48;88.33;61438.53;5016778;28;20222;-78
2022/03/13 05:32:28;;;;;;;27.73;13.25;;;;;;;-5.54;88.33;61437.38;5015693;28;20250;-77
2022/03/13 05:34:57;;;;;;;28.67;14.60;;;;;;;-5.43;88.77;61441.16;5018320;28;20253;-78
2022/03/13 05:37:30;;;;;;;27.77;15.00;;;;;;;-5.39;88.22;61453.19;5018642;28;20218;-77
2022/03/13 05:39:57;;;;;;;24.50;13.00;;;;;;;-5.19;88.51;61475.53;5014841;28;20237;-77
2022/03/13 05:42:28;;;;;;;28.83;14.20;;;;;;;-5.10;88.32;61485.22;5021683;28;20550;-79
2022/03/13 05:44:55;;;;;;;22.42;13.70;;;;;;;-5.06;88.54;61486.81;5024247;28;20496;-79
2022/03/13 05:47:22;;;;;;;22.60;13.13;;;;;;;-4.93;89.64;61499.56;5031541;28;20224;-78
2022/03/13 05:49:50;;;;;;;23.33;12.90;;;;;;;-4.93;88.04;61500.06;5032905;28;20208;-79
2022/03/13 05:52:17;;;;;;;21.02;11.75;;;;;;;-5.06;87.39;61486.31;5025826;28;20906;-79
2022/03/13 05:54:44;;;;;;;19.95;12.00;;;;;;;-4.91;86.95;61507.06;5024113;28;20542;-78
2022/03/13 05:57:11;;;;;;;27.25;14.27;;;;;;;-4.87;86.25;61508.66;5031641;28;20214;-79
2022/03/13 05:59:38;;;;;;;27.30;13.35;;;;;;;-4.86;85.08;61506.69;5024695;28;20264;-78
2022/03/13 06:02:06;;;;;;;23.42;12.70;;;;;;;-4.68;86.09;61522.59;5024693;28;20675;-79
2022/03/13 06:04:34;;;;;;;20.73;11.77;;;;;;;-4.57;85.12;61538.25;5030225;28;20198;-78
2022/03/13 06:07:03;;;;;;;27.48;12.38;;;;;;;-4.24;85.60;61569.44;5044527;28;20222;-77
2022/03/13 06:09:30;;;;;;;20.73;11.70;;;;;;;-4.19;83.77;61577.00;5030900;28;20211;-78
2022/03/13 06:11:57;;;;;;;16.48;10.15;;;;;;;-4.56;81.97;61529.34;5030610;28;20234;-78
2022/03/13 06:14:24;;;;;;;15.60;11.02;;;;;;;-4.27;82.59;61568.84;5034598;28;20203;-79
2022/03/13 06:16:51;;;;;;;24.70;11.98;;;;;;;-4.30;81.00;61558.34;5029727;28;20234;-78
2022/03/13 06:19:18;;;;;;;25.50;11.98;;;;;;;-4.40;80.94;61555.59;5044182;28;20210;-77
2022/03/13 06:21:47;;;;;;;21.63;11.93;;;;;;;-4.46;81.28;61545.00;5029434;28;20230;-77
2022/03/13 06:24:16;;;;;;;25.80;13.27;;;;;;;-4.68;82.37;61518.13;5036730;28;20217;-77
2022/03/13 06:26:43;;;;;;;23.95;12.30;;;;;;;-4.45;84.42;61548.00;5027332;28;20226;-78
2022/03/13 06:29:10;;;;;;;24.42;12.18;;;;;;;-4.39;82.91;61549.16;5026314;28;20202;-76
2022/03/13 06:31:36;;;;;;;21.65;11.80;;;;;;;-4.26;83.62;61567.41;5034930;28;20194;-77
2022/03/13 06:34:03;;;;;;;24.00;13.13;;;;;;;-4.10;82.74;61579.25;5033532;28;20515;-77
2022/03/13 06:36:30;;;;;;;26.58;13.23;;;;;;;-4.02;82.11;61587.41;5022306;28;20264;-77
2022/03/13 06:38:57;;;;;;;31.80;11.90;;;;;;;-4.02;81.06;61589.41;5022983;28;20214;-76
2022/03/13 06:41:26;;;;;;;21.33;12.20;;;;;;;-4.12;80.86;61582.19;5042358;28;20202;-77
2022/03/13 06:43:53;;;;;;;31.80;13.68;;;;;;;-4.23;79.89;61570.97;5030207;28;20482;-77
2022/03/13 06:46:20;;;;;;;23.67;12.95;;;;;;;-4.31;80.79;61562.78;5024869;28;20201;-76
2022/03/13 06:48:47;;;;;;;22.92;12.73;;;;;;;-4.20;81.02;61566.56;5030045;28;20269;-77
2022/03/13 06:51:14;;;;;;;27.73;13.82;;;;;;;-4.33;79.41;61562.75;5039751;28;20205;-78
2022/03/13 06:53:40;;;;;;;21.83;12.23;;;;;;;-4.45;79.64;61548.50;5026210;28;20461;-77
2022/03/13 06:56:07;;;;;;;22.02;12.40;;;;;;;-4.35;81.34;61563.19;5026312;28;20248;-78
2022/03/13 06:58:38;;;;;;;28.73;12.60;;;;;;;-4.35;81.97;61550.75;5030304;28;20218;-78
2022/03/13 07:01:06;;;;;;;26.95;12.85;;;;;;;-4.38;80.85;61555.66;5044201;28;20513;-77
2022/03/13 07:03:34;;;;;;;24.05;12.07;;;;;;;-4.17;81.42;61577.09;5026248;28;20515;-77
2022/03/13 07:06:02;;;;;;;20.85;12.10;;;;;;;-4.09;79.88;61582.75;5026205;28;20198;-77
2022/03/13 07:08:30;;;;;;;22.40;13.00;;;;;;;-3.93;82.19;61601.59;5010480;28;20216;-78
2022/03/13 07:10:57;;;;;;;30.33;13.45;;;;;;;-3.68;80.98;61624.63;5026238;28;20512;-77
2022/03/13 07:13:24;;;;;;;19.40;10.85;;;;;;;-3.53;78.99;61647.41;5027541;28;20411;-76
2022/03/13 07:15:53;;;;;;;22.77;11.85;;;;;;;-3.74;76.28;61620.47;5026853;28;20206;-77
2022/03/13 07:18:20;;;;;;;37.45;13.82;;;;;;;-3.85;77.12;61609.75;5028802;28;20234;-78
2022/03/13 07:20:47;;;;;;;23.98;12.85;;;;;;;-3.90;76.25;61604.13;5023070;28;20210;-78
2022/03/13 07:23:14;;;;;;;16.50;10.80;;;;;;;-3.66;76.06;61631.13;5044794;28;20244;-78
2022/03/13 07:25:41;;;;;;;19.95;10.52;;;;;;;-3.55;71.72;61629.91;5029671;28;20219;-78
2022/03/13 07:28:08;;;;;;;16.40;10.60;;;;;;;-3.53;71.02;61641.91;5035622;28;20222;-77
2022/03/13 07:30:35;;;;;;;20.80;10.35;;;;;;;-3.70;68.69;61617.59;5026363;28;20199;-78
2022/03/13 07:33:04;;;;;;;15.65;9.55;;;;;;;-3.73;69.07;61619.00;5024968;28;20238;-80
2022/03/13 07:35:30;;;;;;;18.05;9.15;;;;;;;-3.86;69.39;61603.75;5026931;28;20199;-78
2022/03/13 07:37:57;;;;;;;23.70;11.20;;;;;;;-3.65;70.65;61632.66;5027193;28;20325;-80
2022/03/13 07:40:24;;;;;;;19.33;11.07;;;;;;;-3.55;74.46;61632.91;5022836;28;20440;-79
2022/03/13 07:42:51;;;;;;;17.23;10.27;;;;;;;-3.63;69.76;61631.69;5025556;28;20280;-77
2022/03/13 07:45:18;;;;;;;23.42;14.82;;;;;;;-3.31;73.78;61666.38;5024128;28;20758;-77
2022/03/13 07:47:45;;;;;;;18.77;10.80;;;;;;;-3.20;70.50;61675.09;5021734;28;20222;-78
2022/03/13 07:50:13;;;;;;;17.75;11.65;;;;;;;-3.10;72.09;61685.31;5015023;28;20191;-77
2022/03/13 07:52:41;;;;;;;18.25;11.93;;;;;;;-2.99;69.56;61696.56;5022218;28;20242;-77
2022/03/13 07:55:10;;;;;;;17.90;11.20;;;;;;;-2.66;72.48;61733.25;5025807;28;20225;-76
2022/03/13 07:57:37;;;;;;;13.88;9.40;;;;;;;-2.85;65.51;61710.88;5023695;28;20242;-77
2022/03/13 08:00:05;;;;;;;18.77;10.35;;;;;;;-2.91;65.33;61707.22;5023571;28;20211;-78
2022/03/13 08:02:32;;;;;;;18.15;9.77;;;;;;;-2.96;65.32;61697.63;5025402;28;20219;-77
2022/03/13 08:04:59;;;;;;;25.45;11.27;;;;;;;-2.96;67.12;61692.66;5022832;28;20210;-77
2022/03/13 08:07:27;;;;;;;13.77;9.60;;;;;;;-2.48;69.15;61746.19;5022208;28;20226;-77
2022/03/13 08:09:54;;;;;;;17.08;10.48;;;;;;;-2.42;64.35;61752.31;5024067;28;20210;-76
2022/03/13 08:12:21;;;;;;;17.30;9.73;;;;;;;-2.33;64.28;61769.50;5024505;28;20218;-77
2022/03/13 08:14:50;;;;;;;22.42;9.55;;;;;;;-2.32;62.97;61762.53;5024746;28;20203;-76
2022/03/13 08:17:16;;;;;;;17.58;10.55;;;;;;;-2.01;64.98;61793.72;5026609;28;20229;-75
2022/03/13 08:19:43;;;;;;;15.23;9.73;;;;;;;-2.06;59.89;61791.63;5028658;28;20483;-78
2022/03/13 08:22:10;;;;;;;16.92;9.52;;;;;;;-1.80;65.68;61815.72;5025369;28;20563;-76
2022/03/13 08:24:38;;;;;;;19.63;10.20;;;;;;;-1.50;60.90;61840.91;5020018;28;20397;-77
2022/03/13 08:27:05;;;;;;;13.82;9.57;;;;;;;-1.42;58.14;61854.59;5033753;28;20297;-77
2022/03/13 08:29:32;;;;;;;16.23;10.18;;;;;;;-1.33;58.95;61863.78;5024393;28;20211;-76
2022/03/13 08:31:59;;;;;;;16.00;9.75;;;;;;;-1.20;61.22;61877.09;5024554;28;20265;-78
2022/03/13 08:34:29;;;;;;;21.05;10.52;;;;;;;-1.11;56.29;61888.31;5023812;28;20236;-77
2022/03/13 08:36:57;;;;;;;12.65;8.45;;;;;;;-1.27;61.41;61867.44;5030021;28;20223;-78
2022/03/13 08:39:24;;;;;;;16.65;9.82;;;;;;;-1.20;58.03;61876.59;5014331;28;20204;-77
2022/03/13 08:41:52;;;;;;;22.35;10.93;;;;;;;-1.09;57.29;61887.34;5031150;28;20284;-77
2022/03/13 08:44:19;;;;;;;18.05;10.88;;;;;;;-0.85;56.69;61912.44;5024456;28;20206;-76
2022/03/13 08:46:46;;;;;;;16.45;10.23;;;;;;;-0.98;53.75;61896.13;5026194;28;20223;-76
2022/03/13 08:49:13;;;;;;;19.02;10.27;;;;;;;-0.75;56.03;61925.16;5028776;28;20198;-77
2022/03/13 08:51:40;;;;;;;15.27;10.38;;;;;;;-0.86;61.71;61913.88;5028693;28;20480;-78
2022/03/13 08:54:07;;;;;;;20.40;12.40;;;;;;;-0.90;62.42;61904.28;5025333;28;20234;-77
2022/03/13 08:56:35;;;;;;;21.63;12.23;;;;;;;-0.82;62.25;61914.97;5024939;28;20389;-77
2022/03/13 08:59:04;;;;;;;20.08;11.73;;;;;;;-0.51;60.43;61944.75;5025889;28;20492;-77
2022/03/13 09:01:30;;;;;;;22.98;12.23;;;;;;;-0.04;58.00;61995.41;5023135;28;20583;-77
2022/03/13 09:03:57;;;;;;;24.23;12.65;;;;;;;0.43;58.04;62042.53;5024216;28;20215;-77
2022/03/13 09:06:25;;;;;;;19.65;12.35;;;;;;;0.08;54.35;62004.66;5025114;28;20287;-77
2022/03/13 09:08:51;;;;;;;30.25;12.80;;;;;;;0.27;55.80;62026.13;5024862;28;20199;-76
2022/03/13 09:11:18;;;;;;;20.50;12.48;;;;;;;0.69;54.73;62069.69;5021471;28;20225;-76
2022/03/13 09:13:45;;;;;;;17.70;11.88;;;;;;;0.88;58.66;62089.19;5023601;28;20280;-76
2022/03/13 09:16:14;;;;;;;21.38;12.00;;;;;;;0.86;52.48;62092.13;5024681;28;20253;-77
2022/03/13 09:18:41;;;;;;;20.95;12.63;;;;;;;1.19;52.40;62120.47;5023219;28;20222;-76
2022/03/13 09:21:08;;;;;;;18.50;12.48;;;;;;;1.82;52.14;62182.09;5026370;28;20249;-77
2022/03/13 09:23:36;;;;;;;22.08;12.18;;;;;;;1.42;51.86;62143.56;5026828;28;20229;-77
2022/03/13 09:26:03;;;;;;;21.20;12.80;;;;;;;1.69;51.40;62169.25;5025328;28;20198;-76
2022/03/13 09:28:29;;;;;;;21.13;12.82;;;;;;;1.39;50.25;62140.47;5024169;28;20280;-77
2022/03/13 09:30:58;;;;;;;19.65;12.77;;;;;;;1.55;52.10;62154.91;5025357;28;20203;-77
2022/03/13 09:33:27;;;;;;;24.17;12.88;;;;;;;1.79;51.48;62182.06;5027305;28;20276;-76
2022/03/13 09:35:54;;;;;;;28.30;13.30;;;;;;;1.65;52.15;62164.66;5030119;28;20195;-77
2022/03/13 09:38:21;;;;;;;26.42;13.32;;;;;;;1.76;51.24;62180.97;5026574;28;20223;-76
2022/03/13 09:40:48;;;;;;;24.20;13.23;;;;;;;1.98;51.41;62204.06;5026097;28;20203;-76
2022/03/13 09:43:17;;;;;;;21.25;12.35;;;;;;;2.11;49.53;62222.44;5025314;28;20237;-77
2022/03/13 09:45:44;;;;;;;23.48;12.27;;;;;;;1.89;48.88;62191.78;5024551;28;20214;-76
2022/03/13 09:48:15;;;;;;;25.08;13.45;;;;;;;2.21;53.13;62222.13;5024252;28;20214;-76
2022/03/13 09:50:44;;;;;;;23.65;14.10;;;;;;;2.32;50.76;62236.47;5019926;28;20203;-76
2022/03/13 09:53:11;;;;;;;27.33;13.02;;;;;;;2.41;50.94;62242.69;5024457;28;20234;-76
2022/03/13 09:55:38;;;;;;;20.45;13.07;;;;;;;2.42;53.38;62246.22;5022912;28;20205;-77
2022/03/13 09:58:08;;;;;;;24.77;13.90;;;;;;;2.22;48.07;62225.69;5022022;28;20269;-76
2022/03/13 10:00:36;;;;;;;24.60;13.70;;;;;;;2.58;49.47;62262.13;5024463;28;20205;-77
2022/03/13 10:03:05;;;;;;;26.88;13.00;;;;;;;3.16;50.15;62322.25;5022844;28;20241;-76
2022/03/13 10:05:43;;;;;;;21.52;13.40;;;;;;;3.10;53.61;62315.56;5024646;28;20258;-76
2022/03/13 10:08:10;;;;;;;25.55;13.68;;;;;;;3.26;49.58;62332.53;5023926;28;20234;-75
2022/03/13 10:10:43;;;;;;;24.30;14.13;;;;;;;3.91;48.82;62401.38;5022998;28;20252;-76
2022/03/13 10:13:11;;;;;;;30.15;13.80;;;;;;;4.23;45.96;62434.28;5024368;28;20234;-76
2022/03/13 10:15:42;;;;;;;23.20;14.30;;;;;;;4.60;46.15;62469.34;5021365;28;20317;-76
2022/03/13 10:18:15;;;;;;;26.40;14.50;;;;;;;5.11;43.65;62521.34;5016557;28;20222;-75
2022/03/13 10:20:44;;;;;;;24.52;16.00;;;;;;;5.22;44.62;62533.19;5018351;28;20761;-77
2022/03/13 10:23:15;;;;;;;26.42;14.57;;;;;;;5.79;43.27;62591.91;5023634;28;20218;-76
2022/03/13 10:25:44;;;;;;;26.20;16.87;;;;;;;6.20;42.63;62635.66;5026219;28;20746;-74
2022/03/13 10:28:19;;;;;;;25.48;15.88;;;;;;;5.71;40.23;62583.16;5027248;28;20218;-74
2022/03/13 10:30:48;;;;;;;24.45;15.02;;;;;;;5.17;40.69;62533.06;5017802;28;20274;-76
2022/03/13 10:33:16;;;;;;;23.20;15.43;;;;;;;4.84;42.56;62493.53;5026777;28;20488;-76
2022/03/13 10:35:44;;;;;;;21.73;14.45;;;;;;;5.00;43.18;62513.06;5025432;28;20444;-75
2022/03/13 10:38:16;;;;;;;22.10;14.45;;;;;;;4.97;42.32;62506.91;5026866;28;20352;-74
2022/03/13 10:40:45;;;;;;;23.90;14.75;;;;;;;4.05;43.02;62412.75;5024477;28;20214;-75
2022/03/13 10:43:18;;;;;;;21.67;14.43;;;;;;;3.97;47.41;62404.53;5025067;28;20235;-75
2022/03/13 10:45:51;;;;;;;22.60;13.93;;;;;;;3.85;42.38;62389.66;5027026;28;20233;-75
2022/03/13 10:48:28;;;;;;;22.80;13.15;;;;;;;4.20;46.73;62428.16;5026454;28;20234;-74
2022/03/13 10:50:58;;;;;;;23.13;13.50;;;;;;;4.50;44.43;62459.06;5026758;28;20235;-74
2022/03/13 10:53:27;;;;;;;27.38;14.30;;;;;;;4.57;43.30;62466.75;5025206;28;20414;-74
2022/03/13 10:56:02;;;;;;;23.15;15.07;;;;;;;5.00;42.30;62512.53;5027985;28;20215;-75
2022/03/13 10:58:35;;;;;;;25.60;12.77;;;;;;;4.16;45.38;62419.03;5028518;28;20261;-76
2022/03/13 11:01:04;;;;;;;23.23;12.80;;;;;;;3.80;42.80;62390.06;5029575;28;20203;-75
2022/03/13 11:03:32;;;;;;;21.75;13.48;;;;;;;4.33;42.48;62441.56;5027180;28;20250;-74
2022/03/13 11:06:01;;;;;;;35.42;15.27;;;;;;;4.21;43.71;62429.22;5026656;28;20218;-76
2022/03/13 11:08:28;;;;;;;24.42;13.88;;;;;;;4.24;46.49;62439.84;5026547;28;20235;-75
2022/03/13 11:10:57;;;;;;;27.25;13.20;;;;;;;4.63;45.24;62480.50;5024866;28;20203;-75
2022/03/13 11:13:28;;;;;;;23.27;12.68;;;;;;;4.71;43.45;62483.19;5026760;28;20242;-76
2022/03/13 11:15:57;;;;;;;19.48;13.20;;;;;;;4.85;46.24;62495.06;5026407;28;20203;-77
2022/03/13 11:18:33;;;;;;;25.77;15.07;;;;;;;5.01;45.20;62511.56;5027093;28;20431;-79
2022/03/13 11:21:06;;;;;;;21.70;13.50;;;;;;;4.81;41.59;62492.97;5025298;28;20202;-77
2022/03/13 11:23:33;;;;;;;28.02;15.18;;;;;;;4.55;44.96;62469.25;5020623;28;20233;-78
2022/03/13 11:26:01;;;;;;;31.75;14.55;;;;;;;4.67;40.97;62482.13;5024171;28;20526;-77
2022/03/13 11:28:29;;;;;;;28.52;13.20;;;;;;;5.11;43.88;62524.38;5025607;28;20222;-78
2022/03/13 11:30:57;;;;;;;21.45;12.52;;;;;;;5.29;44.72;62542.38;5031200;28;20233;-77